createdAt,value
2023-05-19T00:02:13.587Z,101146.53
2023-05-19T00:05:18.589Z,101143.13
2023-05-19T00:08:22.452Z,101146.53
2023-05-19T00:11:26.898Z,101147.72
2023-05-19T00:14:29.208Z,101142.41
2023-05-19T00:17:31.559Z,101145.91
2023-05-19T00:20:33.880Z,101156.66
2023-05-19T00:23:36.391Z,101149.84
2023-05-19T00:26:38.584Z,101150.59
2023-05-19T00:29:42.306Z,101154.00
2023-05-19T00:32:44.491Z,101141.94
2023-05-19T00:35:47.081Z,101136.09
2023-05-19T00:38:51.055Z,101137.59
2023-05-19T00:41:53.526Z,101131.87
2023-05-19T00:44:55.752Z,101130.50
2023-05-19T00:47:58.116Z,101133.22
2023-05-19T00:51:04.740Z,101123.66
2023-05-19T00:54:08.097Z,101129.53
2023-05-19T00:57:10.446Z,101134.53
2023-05-19T01:00:13.733Z,101126.78
2023-05-19T01:03:20.407Z,101124.87
2023-05-19T01:06:23.089Z,101129.59
2023-05-19T01:09:25.238Z,101129.59
2023-05-19T01:12:27.569Z,101126.59
2023-05-19T01:15:30.687Z,101126.06
2023-05-19T01:18:56.158Z,101128.31
2023-05-19T01:22:14.391Z,101121.69
2023-05-19T01:25:22.635Z,101127.31
2023-05-19T01:28:43.321Z,101129.22
2023-05-19T01:31:50.381Z,101132.63
2023-05-19T01:34:52.898Z,101135.19
2023-05-19T01:37:57.429Z,101136.13
2023-05-19T01:41:01.302Z,101126.38
2023-05-19T01:44:04.077Z,101116.59
2023-05-19T01:47:06.409Z,101115.19
2023-05-19T01:50:09.463Z,101120.41
2023-05-19T01:53:11.516Z,101121.47
2023-05-19T01:56:16.835Z,101119.84
2023-05-19T01:59:27.877Z,101121.47
2023-05-19T02:02:50.971Z,101124.13
2023-05-19T02:06:01.312Z,101120.72
2023-05-19T02:09:07.260Z,101123.47
2023-05-19T02:12:20.275Z,101131.44
2023-05-19T02:15:26.587Z,101126.31
2023-05-19T02:18:29.980Z,101122.81
2023-05-19T02:21:32.392Z,101129.94
2023-05-19T02:24:34.397Z,101133.62
2023-05-19T02:27:37.237Z,101130.78
2023-05-19T02:30:39.215Z,101127.38
2023-05-19T02:33:42.936Z,101124.81
2023-05-19T02:36:44.972Z,101125.56
2023-05-19T02:39:47.632Z,101129.06
2023-05-19T02:42:49.647Z,101130.03
2023-05-19T02:45:52.074Z,101116.84
2023-05-19T02:48:54.984Z,101115.25
2023-05-19T02:51:57.480Z,101117.81
2023-05-19T02:54:59.458Z,101121.63
2023-05-19T02:58:01.813Z,101125.44
2023-05-19T03:01:04.337Z,101121.06
2023-05-19T03:04:06.918Z,101118.41
2023-05-19T03:07:10.270Z,101128.19
2023-05-19T03:10:12.569Z,101125.44
2023-05-19T03:13:14.696Z,101125.53
2023-05-19T03:16:17.391Z,101123.62
2023-05-19T03:19:19.572Z,101130.62
2023-05-19T03:22:22.025Z,101133.09
2023-05-19T03:25:24.217Z,101141.81
2023-05-19T03:28:27.582Z,101144.16
2023-05-19T03:31:30.594Z,101154.47
2023-05-19T03:34:35.446Z,101141.00
2023-05-19T03:37:37.680Z,101138.87
2023-05-19T03:40:41.340Z,101131.56
2023-05-19T03:43:43.709Z,101132.22
2023-05-19T03:46:46.172Z,101138.19
2023-05-19T03:49:49.922Z,101134.31
2023-05-19T03:52:53.644Z,101127.75
2023-05-19T03:55:57.029Z,101135.22
2023-05-19T03:58:59.455Z,101138.41
2023-05-19T04:02:01.524Z,101136.09
2023-05-19T04:05:07.169Z,101141.41
2023-05-19T04:08:09.249Z,101137.41
2023-05-19T04:11:13.376Z,101137.50
2023-05-19T04:14:16.118Z,101148.16
2023-05-19T04:17:19.045Z,101146.34
2023-05-19T04:20:21.416Z,101152.06
2023-05-19T04:23:23.845Z,101150.78
2023-05-19T04:26:26.928Z,101148.13
2023-05-19T04:29:29.583Z,101148.44
2023-05-19T04:32:32.144Z,101152.25
2023-05-19T04:35:38.168Z,101150.66
2023-05-19T04:38:42.172Z,101157.47
2023-05-19T04:41:45.138Z,101163.22
2023-05-19T04:44:49.370Z,101170.19
2023-05-19T04:47:52.614Z,101172.06
2023-05-19T04:50:54.811Z,101161.03
2023-05-19T04:53:58.288Z,101167.62
2023-05-19T04:57:01.289Z,101170.06
2023-05-19T05:00:08.371Z,101174.31
2023-05-19T05:03:14.468Z,101167.50
2023-05-19T05:06:18.281Z,101170.47
2023-05-19T05:09:21.097Z,101180.59
2023-05-19T05:12:24.482Z,101180.09
2023-05-19T05:15:28.855Z,101175.87
2023-05-19T05:18:33.851Z,101179.75
2023-05-19T05:21:36.681Z,101177.62
2023-05-19T05:24:40.207Z,101187.41
2023-05-19T05:27:43.864Z,101197.06
2023-05-19T05:30:46.525Z,101198.28
2023-05-19T05:33:49.823Z,101195.84
2023-05-19T05:36:53.577Z,101187.06
2023-05-19T05:39:56.746Z,101189.25
2023-05-19T05:42:59.667Z,101191.19
2023-05-19T05:46:02.860Z,101191.38
2023-05-19T05:49:05.627Z,101184.19
2023-05-19T05:52:09.120Z,101188.88
2023-05-19T05:55:13.638Z,101190.59
2023-05-19T05:58:17.079Z,101195.03
2023-05-19T06:01:21.036Z,101192.87
2023-05-19T06:04:25.691Z,101197.81
2023-05-19T06:07:29.540Z,101195.03
2023-05-19T06:10:32.755Z,101195.81
2023-05-19T06:13:36.350Z,101201.62
2023-05-19T06:16:39.879Z,101197.66
2023-05-19T06:19:42.364Z,101197.44
2023-05-19T06:22:45.317Z,101193.41
2023-05-19T06:25:48.507Z,101200.59
2023-05-19T06:28:51.311Z,101200.41
2023-05-19T06:31:53.975Z,101212.19
2023-05-19T06:34:57.083Z,101204.28
2023-05-19T06:38:01.425Z,101223.72
2023-05-19T06:41:04.842Z,101224.69
2023-05-19T06:44:09.006Z,101222.00
2023-05-19T06:47:11.342Z,101229.66
2023-05-19T06:50:13.816Z,101230.91
2023-05-19T06:53:17.108Z,101231.50
2023-05-19T06:56:20.070Z,101235.09
2023-05-19T06:59:23.103Z,101233.09
2023-05-19T07:02:25.886Z,101247.19
2023-05-19T07:05:28.403Z,101233.22
2023-05-19T07:08:31.578Z,101233.09
2023-05-19T07:11:35.117Z,101237.63
2023-05-19T07:14:40.461Z,101234.00
2023-05-19T07:17:42.932Z,101231.56
2023-05-19T07:20:44.987Z,101235.25
2023-05-19T07:23:47.236Z,101233.06
2023-05-19T07:26:49.306Z,101229.00
2023-05-19T07:29:51.772Z,101222.31
2023-05-19T07:32:53.922Z,101212.78
2023-05-19T07:35:56.418Z,101214.13
2023-05-19T07:38:58.663Z,101221.56
2023-05-19T07:42:01.533Z,101209.03
2023-05-19T07:45:03.686Z,101212.34
2023-05-19T07:48:07.973Z,101213.94
2023-05-19T07:51:10.281Z,101213.06
2023-05-19T07:54:12.580Z,101212.06
2023-05-19T07:57:14.609Z,101207.53
2023-05-19T08:00:20.404Z,101213.44
2023-05-19T08:03:24.065Z,101207.25
2023-05-19T08:06:26.636Z,101201.38
2023-05-19T08:09:29.494Z,101202.34
2023-05-19T08:12:32.646Z,101204.62
2023-05-19T08:15:35.639Z,101195.22
2023-05-19T08:18:38.326Z,101193.13
2023-05-19T08:21:42.627Z,101190.63
2023-05-19T08:24:45.565Z,101190.81
2023-05-19T08:27:48.539Z,101189.34
2023-05-19T08:30:51.535Z,101181.16
2023-05-19T08:33:53.882Z,101186.16
2023-05-19T08:36:57.785Z,101181.84
2023-05-19T08:40:00.118Z,101182.34
2023-05-19T08:43:02.217Z,101181.75
2023-05-19T08:46:06.244Z,101185.87
2023-05-19T08:49:13.151Z,101180.81
2023-05-19T08:52:19.567Z,101185.13
2023-05-19T08:55:27.754Z,101187.25
2023-05-19T08:58:31.041Z,101180.25
2023-05-19T09:01:33.805Z,101184.16
2023-05-19T09:04:37.838Z,101177.84
2023-05-19T09:07:42.262Z,101171.66
2023-05-19T09:10:44.590Z,101180.41
2023-05-19T09:13:47.017Z,101173.44
2023-05-19T09:16:52.365Z,101188.63
2023-05-19T09:19:54.407Z,101183.53
2023-05-19T09:22:57.430Z,101188.25
2023-05-19T09:26:04.372Z,101186.91
2023-05-19T09:29:13.569Z,101187.25
2023-05-19T09:32:25.022Z,101183.34
2023-05-19T09:35:27.871Z,101177.59
2023-05-19T09:38:29.923Z,101170.19
2023-05-19T09:41:33.067Z,101172.97
2023-05-19T09:44:35.321Z,101166.31
2023-05-19T09:47:38.495Z,101170.59
2023-05-19T09:50:40.699Z,101168.56
2023-05-19T09:53:46.408Z,101160.59
2023-05-19T09:56:51.951Z,101153.94
2023-05-19T09:59:56.822Z,101152.16
2023-05-19T10:03:00.576Z,101152.56
2023-05-19T10:06:04.514Z,101144.72
2023-05-19T10:09:06.615Z,101136.91
2023-05-19T10:12:09.398Z,101135.19
2023-05-19T10:15:13.601Z,101132.78
2023-05-19T10:18:18.114Z,101133.91
2023-05-19T10:21:20.136Z,101123.28
2023-05-19T10:24:22.412Z,101126.62
2023-05-19T10:27:26.110Z,101123.62
2023-05-19T10:30:33.533Z,101125.81
2023-05-19T10:33:47.180Z,101123.84
2023-05-19T10:36:59.480Z,101122.66
2023-05-19T10:40:06.558Z,101127.34
2023-05-19T10:43:21.670Z,101116.69
2023-05-19T10:46:25.123Z,101116.03
2023-05-19T10:49:30.574Z,101117.88
2023-05-19T10:52:36.883Z,101116.47
2023-05-19T10:55:52.825Z,101106.28
2023-05-19T10:58:54.899Z,101110.91
2023-05-19T11:01:57.213Z,101100.88
2023-05-19T11:05:08.074Z,101100.66
2023-05-19T11:08:12.130Z,101092.97
2023-05-19T11:11:14.715Z,101086.00
2023-05-19T11:14:24.311Z,101094.41
2023-05-19T11:17:27.470Z,101095.94
2023-05-19T11:20:34.584Z,101090.87
2023-05-19T11:23:44.049Z,101082.91
2023-05-19T11:26:49.408Z,101091.88
2023-05-19T11:30:06.218Z,101087.59
2023-05-19T11:38:13.784Z,101087.91
2023-05-19T11:41:58.764Z,101087.13
2023-05-19T11:45:01.275Z,101081.31
2023-05-19T11:48:03.822Z,101078.56
2023-05-19T11:51:06.467Z,101071.72
2023-05-19T11:58:57.319Z,101074.84
2023-05-19T12:02:06.142Z,101076.34
2023-05-19T12:05:18.040Z,101064.13
2023-05-19T12:08:20.164Z,101060.66
2023-05-19T12:16:03.329Z,101059.97
2023-05-19T12:19:06.082Z,101055.19
2023-05-19T12:22:10.800Z,101049.16
2023-05-19T12:25:15.125Z,101054.16
2023-05-19T12:28:17.161Z,101046.16
2023-05-19T12:31:58.677Z,101035.41
2023-05-19T12:35:02.191Z,101036.56
2023-05-19T12:39:31.411Z,101028.09
2023-05-19T12:43:02.337Z,101020.28
2023-05-19T12:46:11.605Z,101017.88
2023-05-19T12:49:13.747Z,101008.91
2023-05-19T12:52:16.077Z,101012.31
2023-05-19T12:55:20.493Z,101008.03
2023-05-19T12:58:23.557Z,101005.38
2023-05-19T13:01:25.814Z,101002.53
2023-05-19T13:04:28.225Z,101004.38
2023-05-19T13:07:30.296Z,100998.38
2023-05-19T13:10:33.928Z,101002.13
2023-05-19T13:13:59.733Z,100991.84
2023-05-19T13:17:02.167Z,100994.19
2023-05-19T13:20:04.848Z,100991.03
2023-05-19T13:23:07.225Z,100990.53
2023-05-19T13:26:09.289Z,100976.84
2023-05-19T13:29:12.044Z,100981.66
2023-05-19T13:32:14.055Z,100975.97
2023-05-19T13:35:16.477Z,100978.31
2023-05-19T13:38:18.584Z,100968.25
2023-05-19T13:41:26.160Z,100962.59
2023-05-19T13:44:28.156Z,100959.91
2023-05-19T13:47:30.703Z,100965.53
2023-05-19T13:50:34.186Z,100953.00
2023-05-19T13:53:36.578Z,100960.91
2023-05-19T13:56:39.090Z,100955.41
2023-05-19T13:59:53.362Z,100956.03
2023-05-19T14:03:03.665Z,100952.31
2023-05-19T14:06:06.113Z,100945.66
2023-05-19T14:09:08.122Z,100950.75
2023-05-19T14:12:12.113Z,100940.53
2023-05-19T14:15:14.393Z,100940.81
2023-05-19T14:18:16.892Z,100941.38
2023-05-19T14:21:18.910Z,100939.25
2023-05-19T14:24:21.195Z,100936.59
2023-05-19T14:27:23.162Z,100938.47
2023-05-19T14:30:25.461Z,100937.03
2023-05-19T14:33:27.448Z,100948.87
2023-05-19T14:36:29.749Z,100943.59
2023-05-19T14:39:31.749Z,100938.50
2023-05-19T14:42:34.107Z,100944.97
2023-05-19T14:45:36.151Z,100935.88
2023-05-19T14:54:47.668Z,100939.16
2023-05-19T14:57:50.205Z,100930.62
2023-05-19T15:00:52.509Z,100935.44
2023-05-19T15:03:54.590Z,100928.50
2023-05-19T15:07:09.753Z,100927.00
2023-05-19T15:10:12.893Z,100924.84
2023-05-19T15:13:16.091Z,100935.81
2023-05-19T15:16:18.523Z,100923.06
2023-05-19T15:19:21.301Z,100916.84
2023-05-19T15:22:23.340Z,100915.37
2023-05-19T15:25:25.638Z,100924.34
2023-05-19T15:28:27.606Z,100922.28
2023-05-19T15:31:30.112Z,100923.41
2023-05-19T15:34:32.300Z,100923.41
2023-05-19T15:37:34.548Z,100918.06
2023-05-19T15:40:36.596Z,100913.97
2023-05-19T15:43:38.926Z,100908.81
2023-05-19T15:46:41.127Z,100919.81
2023-05-19T15:49:43.530Z,100917.69
2023-05-19T15:52:45.519Z,100919.94
2023-05-19T15:55:47.846Z,100913.03
2023-05-19T15:58:49.944Z,100920.88
2023-05-19T16:01:53.064Z,100920.72
2023-05-19T16:04:55.589Z,100916.00
2023-05-19T16:07:57.623Z,100917.47
2023-05-19T16:10:59.910Z,100913.91
2023-05-19T16:14:01.909Z,100920.25
2023-05-19T16:17:04.903Z,100918.66
2023-05-19T16:20:07.336Z,100918.84
2023-05-19T16:23:09.749Z,100923.22
2023-05-19T16:26:11.773Z,100922.91
2023-05-19T16:29:14.072Z,100932.34
2023-05-19T16:32:16.301Z,100923.44
2023-05-19T16:35:18.631Z,100932.50
2023-05-19T16:38:20.758Z,100922.28
2023-05-19T16:41:23.043Z,100934.28
2023-05-19T16:44:25.778Z,100933.38
2023-05-19T16:47:28.080Z,100933.41
2023-05-19T16:50:30.114Z,100931.44
2023-05-19T16:53:32.423Z,100930.12
2023-05-19T16:56:34.489Z,100918.91
2023-05-19T16:59:36.791Z,100919.97
2023-05-19T17:02:38.913Z,100921.91
2023-05-19T17:05:43.369Z,100921.37
2023-05-19T17:08:45.531Z,100923.56
2023-05-19T17:11:47.800Z,100922.25
2023-05-19T17:14:51.984Z,100922.41
2023-05-19T17:17:54.379Z,100928.63
2023-05-19T17:20:56.460Z,100920.22
2023-05-19T17:23:58.713Z,100918.37
2023-05-19T17:27:00.903Z,100920.94
2023-05-19T17:30:03.482Z,100929.19
2023-05-19T17:33:05.751Z,100919.91
2023-05-19T17:36:08.482Z,100928.16
2023-05-19T17:39:10.623Z,100933.88
2023-05-19T17:42:12.888Z,100942.06
2023-05-19T17:45:14.896Z,100939.34
2023-05-19T17:48:17.331Z,100945.25
2023-05-19T17:51:19.509Z,100936.00
2023-05-19T17:54:22.069Z,100948.56
2023-05-19T17:57:25.751Z,100940.62
2023-05-19T18:00:28.303Z,100942.56
2023-05-19T18:03:30.775Z,100940.88
2023-05-19T18:06:32.980Z,100941.44
2023-05-19T18:09:37.178Z,100943.94
2023-05-19T18:12:39.233Z,100942.78
2023-05-19T18:15:41.670Z,100939.59
2023-05-19T18:18:46.933Z,100939.75
2023-05-19T18:21:49.233Z,100940.44
2023-05-19T18:24:52.041Z,100939.28
2023-05-19T18:27:55.825Z,100940.97
2023-05-19T18:31:02.135Z,100952.75
2023-05-19T18:34:04.598Z,100941.81
2023-05-19T18:37:06.558Z,100951.91
2023-05-19T18:40:08.986Z,100958.59
2023-05-19T18:43:12.074Z,100953.41
2023-05-19T18:46:14.512Z,100960.47
2023-05-19T18:49:17.167Z,100955.00
2023-05-19T18:52:19.873Z,100969.81
2023-05-19T18:55:22.727Z,100967.19
2023-05-19T18:58:25.059Z,100975.22
2023-05-19T19:01:27.275Z,100968.75
2023-05-19T19:04:29.688Z,100964.09
2023-05-19T19:07:31.716Z,100962.00
2023-05-19T19:10:38.884Z,100963.69
2023-05-19T19:13:41.135Z,100969.06
2023-05-19T19:16:43.445Z,100971.16
2023-05-19T19:19:45.606Z,100968.91
2023-05-19T19:22:47.962Z,100970.16
2023-05-19T19:25:50.497Z,100975.66
2023-05-19T19:28:52.867Z,100975.25
2023-05-19T19:31:54.880Z,100975.38
2023-05-19T19:34:57.200Z,100988.91
2023-05-19T19:37:59.220Z,100983.56
2023-05-19T19:41:01.543Z,100986.22
2023-05-19T19:44:03.607Z,100993.41
2023-05-19T19:47:06.419Z,100997.06
2023-05-19T19:50:09.208Z,100992.72
2023-05-19T19:53:11.542Z,100997.06
2023-05-19T19:56:13.583Z,100999.06
2023-05-19T19:59:16.145Z,101004.25
2023-05-19T20:02:18.180Z,101005.25
2023-05-19T20:05:21.080Z,101000.59
2023-05-19T20:08:23.871Z,101001.31
2023-05-19T20:11:26.802Z,100997.94
2023-05-19T20:14:28.856Z,101005.97
2023-05-19T20:17:31.126Z,101005.97
2023-05-19T20:20:33.437Z,101011.31
2023-05-19T20:23:36.107Z,101013.03
2023-05-19T20:26:38.075Z,101000.19
2023-05-19T20:29:40.606Z,100999.78
2023-05-19T20:32:42.593Z,101003.72
2023-05-19T20:35:44.829Z,101006.56
2023-05-19T20:38:47.959Z,101004.56
2023-05-19T20:41:50.360Z,101007.97
2023-05-19T20:44:52.688Z,101007.69
2023-05-19T20:47:55.039Z,101000.78
2023-05-19T20:50:57.229Z,101000.50
2023-05-19T20:54:00.137Z,101001.47
2023-05-19T20:57:06.398Z,101000.06
2023-05-19T21:00:09.152Z,101002.31
2023-05-19T21:03:11.665Z,101000.91
2023-05-19T21:06:14.119Z,100995.84
2023-05-19T21:09:16.208Z,100997.81
2023-05-19T21:12:21.185Z,100998.94
2023-05-19T21:15:23.834Z,100993.28
2023-05-19T21:18:26.063Z,100989.22
2023-05-19T21:21:28.319Z,100992.87
2023-05-19T21:24:31.010Z,100994.69
2023-05-19T21:27:35.447Z,100992.72
2023-05-19T21:30:37.726Z,101001.72
2023-05-19T21:33:39.733Z,100995.78
2023-05-19T21:36:42.322Z,101003.69
2023-05-19T21:39:44.643Z,100987.03
2023-05-19T21:42:47.064Z,100990.44
2023-05-19T21:45:49.013Z,100989.59
2023-05-19T21:48:51.293Z,100986.94
2023-05-19T21:51:53.261Z,100993.94
2023-05-19T21:54:56.229Z,100992.84
2023-05-19T21:57:59.583Z,100990.28
2023-05-19T22:01:03.537Z,100987.31
2023-05-19T22:04:06.035Z,100989.00
2023-05-19T22:07:08.166Z,100983.06
2023-05-19T22:10:10.582Z,100985.44
2023-05-19T22:13:12.597Z,100979.13
2023-05-19T22:16:15.003Z,100971.78
2023-05-19T22:19:17.187Z,100966.41
2023-05-19T22:22:19.483Z,100955.00
2023-05-19T22:25:21.444Z,100954.88
2023-05-19T22:28:23.667Z,100954.88
2023-05-19T22:31:25.637Z,100953.19
2023-05-19T22:34:28.003Z,100953.59
2023-05-19T22:37:29.971Z,100955.81
2023-05-19T22:40:32.662Z,100955.37
2023-05-19T22:43:34.890Z,100959.56
2023-05-19T22:46:37.281Z,100950.84
2023-05-19T22:49:39.964Z,100951.25
2023-05-19T22:52:42.265Z,100960.56
2023-05-19T22:55:44.303Z,100960.16
2023-05-19T22:58:46.635Z,100963.94
2023-05-19T23:01:48.668Z,100955.34
2023-05-19T23:04:50.937Z,100950.13
2023-05-19T23:07:52.892Z,100949.09
2023-05-19T23:10:59.237Z,100942.03
2023-05-19T23:14:01.469Z,100935.37
2023-05-19T23:17:03.830Z,100935.78
2023-05-19T23:20:06.466Z,100928.63
2023-05-19T23:23:08.807Z,100934.34
2023-05-19T23:26:13.240Z,100945.19
2023-05-19T23:29:15.465Z,100944.47
2023-05-19T23:32:17.424Z,100936.31
2023-05-19T23:35:20.524Z,100941.78
2023-05-19T23:38:22.543Z,100934.44
2023-05-19T23:41:24.797Z,100931.31
2023-05-19T23:44:27.274Z,100931.97
2023-05-19T23:47:29.614Z,100922.69
2023-05-19T23:50:31.721Z,100917.63
2023-05-19T23:53:33.968Z,100919.00
2023-05-19T23:56:35.960Z,100919.97
2023-05-19T23:59:38.254Z,100912.47
